createdAt,value
2019-01-27T00:00:58.446Z,23.50
2019-01-27T00:03:28.886Z,23.30
2019-01-27T00:05:59.389Z,23.10
2019-01-27T00:08:30.013Z,23.30
2019-01-27T00:11:00.572Z,23.40
2019-01-27T00:13:30.985Z,23.40
2019-01-27T00:16:01.421Z,23.30
2019-01-27T00:18:31.803Z,23.20
2019-01-27T00:21:02.296Z,23.10
2019-01-27T00:23:32.667Z,23.10
2019-01-27T00:26:03.195Z,23.40
2019-01-27T00:28:33.747Z,23.30
2019-01-27T00:31:06.242Z,23.40
2019-01-27T00:33:36.699Z,23.50
2019-01-27T00:36:06.999Z,23.20
2019-01-27T00:38:37.397Z,23.30
2019-01-27T00:41:08.052Z,23.40
2019-01-27T00:43:39.150Z,23.40
2019-01-27T00:46:09.657Z,23.30
2019-01-27T00:48:40.102Z,23.20
2019-01-27T00:51:10.556Z,23.20
2019-01-27T00:53:41.092Z,23.30
2019-01-27T00:56:11.570Z,23.20
2019-01-27T00:58:42.043Z,23.20
2019-01-27T01:01:13.908Z,23.10
2019-01-27T01:03:44.480Z,23.20
2019-01-27T01:06:14.861Z,23.30
2019-01-27T01:08:45.308Z,23.40
2019-01-27T01:11:15.841Z,23.30
2019-01-27T01:13:46.219Z,23.40
2019-01-27T01:16:16.540Z,23.30
2019-01-27T01:18:47.135Z,23.30
2019-01-27T01:21:17.608Z,23.30
2019-01-27T01:23:47.911Z,23.40
2019-01-27T01:26:18.472Z,23.40
2019-01-27T01:28:48.910Z,23.30
2019-01-27T01:31:19.242Z,23.20
2019-01-27T01:33:49.702Z,23.20
2019-01-27T01:36:20.131Z,23.10
2019-01-27T01:38:50.677Z,23.20
2019-01-27T01:41:21.037Z,23.10
2019-01-27T01:43:51.466Z,23.00
2019-01-27T01:46:21.840Z,22.90
2019-01-27T01:48:52.158Z,22.90
2019-01-27T01:51:22.519Z,22.90
2019-01-27T01:53:53.223Z,22.80
2019-01-27T01:56:23.590Z,22.80
2019-01-27T01:58:54.084Z,22.80
2019-01-27T02:01:24.698Z,22.80
2019-01-27T02:03:55.078Z,22.80
2019-01-27T02:06:25.434Z,22.80
2019-01-27T02:08:55.933Z,22.80
2019-01-27T02:11:26.290Z,22.80
2019-01-27T02:13:56.684Z,22.80
2019-01-27T02:16:27.081Z,22.80
2019-01-27T02:18:57.445Z,22.70
2019-01-27T02:21:27.974Z,22.70
2019-01-27T02:23:58.449Z,22.70
2019-01-27T02:26:28.972Z,22.70
2019-01-27T02:29:01.669Z,22.70
2019-01-27T02:31:31.235Z,22.70
2019-01-27T02:34:01.597Z,22.50
2019-01-27T02:36:32.061Z,22.50
2019-01-27T02:39:02.494Z,22.50
2019-01-27T02:41:32.877Z,22.40
2019-01-27T02:44:03.365Z,22.30
2019-01-27T02:46:33.802Z,22.40
2019-01-27T02:49:04.199Z,22.40
2019-01-27T02:51:34.679Z,22.40
2019-01-27T02:54:05.512Z,22.30
2019-01-27T02:56:35.959Z,22.30
2019-01-27T02:59:06.682Z,22.20
2019-01-27T03:01:37.038Z,22.10
2019-01-27T03:04:07.495Z,22.10
2019-01-27T03:06:39.386Z,22.10
2019-01-27T03:09:12.113Z,22.10
2019-01-27T03:11:47.102Z,22.00
2019-01-27T03:14:18.176Z,22.00
2019-01-27T03:16:49.427Z,21.90
2019-01-27T03:19:19.918Z,21.80
2019-01-27T03:21:50.301Z,21.90
2019-01-27T03:24:20.785Z,21.80
2019-01-27T03:26:51.145Z,21.90
2019-01-27T03:29:21.550Z,21.80
2019-01-27T03:31:52.032Z,21.80
2019-01-27T03:34:22.504Z,21.80
2019-01-27T03:36:52.887Z,21.80
2019-01-27T03:39:23.241Z,21.80
2019-01-27T03:41:53.704Z,21.80
2019-01-27T03:44:24.040Z,21.90
2019-01-27T03:46:54.426Z,21.90
2019-01-27T03:49:25.019Z,21.90
2019-01-27T03:51:55.410Z,22.00
2019-01-27T03:54:27.089Z,22.10
2019-01-27T03:56:57.770Z,22.20
2019-01-27T03:59:28.201Z,22.40
2019-01-27T04:01:58.680Z,22.40
2019-01-27T04:04:29.109Z,22.50
2019-01-27T04:06:59.591Z,22.60
2019-01-27T04:09:30.087Z,22.60
2019-01-27T04:12:00.580Z,22.60
2019-01-27T04:14:30.909Z,22.70
2019-01-27T04:17:01.292Z,22.60
2019-01-27T04:19:50.863Z,22.80
2019-01-27T04:22:21.335Z,22.90
2019-01-27T04:24:51.717Z,22.90
2019-01-27T04:27:22.123Z,22.90
2019-01-27T04:29:52.609Z,22.90
2019-01-27T04:32:22.974Z,22.90
2019-01-27T04:34:53.330Z,22.80
2019-01-27T04:37:24.926Z,22.50
2019-01-27T04:39:55.318Z,22.40
2019-01-27T04:42:25.876Z,22.40
2019-01-27T04:44:56.268Z,21.80
2019-01-27T04:47:26.623Z,21.70
2019-01-27T04:49:57.049Z,21.90
2019-01-27T04:52:27.403Z,22.00
2019-01-27T04:54:57.955Z,21.80
2019-01-27T04:57:28.626Z,21.70
2019-01-27T04:59:58.908Z,21.50
2019-01-27T05:02:30.690Z,21.50
2019-01-27T05:05:01.176Z,21.60
2019-01-27T05:07:31.539Z,21.70
2019-01-27T05:10:01.896Z,21.80
2019-01-27T05:12:32.325Z,21.80
2019-01-27T05:15:02.759Z,21.80
2019-01-27T05:17:33.384Z,21.80
2019-01-27T05:20:03.897Z,22.00
2019-01-27T05:22:34.277Z,22.00
2019-01-27T05:25:06.130Z,21.80
2019-01-27T05:27:36.563Z,21.70
2019-01-27T05:30:18.571Z,21.20
2019-01-27T05:32:49.999Z,20.70
2019-01-27T05:35:20.733Z,20.40
2019-01-27T05:37:52.155Z,20.30
2019-01-27T05:40:24.093Z,20.30
2019-01-27T05:42:57.051Z,20.30
2019-01-27T05:45:27.512Z,20.30
2019-01-27T05:47:58.853Z,20.40
2019-01-27T05:50:29.425Z,20.50
2019-01-27T05:53:01.327Z,20.50
2019-01-27T05:55:31.936Z,20.70
2019-01-27T05:58:03.537Z,20.70
2019-01-27T06:00:38.323Z,20.90
2019-01-27T06:03:10.358Z,21.00
2019-01-27T06:05:40.846Z,20.90
2019-01-27T06:08:30.238Z,21.00
2019-01-27T06:11:02.150Z,20.90
2019-01-27T06:13:32.474Z,20.80
2019-01-27T06:16:02.801Z,20.70
2019-01-27T06:18:33.250Z,20.70
2019-01-27T06:21:04.803Z,20.80
2019-01-27T06:23:35.987Z,20.80
2019-01-27T06:26:06.420Z,20.70
2019-01-27T06:28:38.210Z,20.80
2019-01-27T06:31:09.080Z,20.90
2019-01-27T06:33:40.865Z,20.90
2019-01-27T06:36:11.256Z,20.90
2019-01-27T06:38:41.561Z,20.90
2019-01-27T06:41:12.021Z,20.90
2019-01-27T06:43:42.373Z,20.70
2019-01-27T06:46:12.757Z,20.50
2019-01-27T06:48:43.297Z,20.10
2019-01-27T06:51:15.821Z,20.10
2019-01-27T06:53:46.257Z,19.90
2019-01-27T06:56:16.592Z,19.70
2019-01-27T06:59:06.857Z,19.60
2019-01-27T07:01:47.703Z,19.40
2019-01-27T07:04:19.550Z,19.60
2019-01-27T07:07:07.633Z,19.40
2019-01-27T07:09:39.474Z,19.20
2019-01-27T07:12:28.963Z,19.60
2019-01-27T07:15:00.813Z,19.90
2019-01-27T07:17:44.492Z,20.10
2019-01-27T07:20:19.430Z,20.10
2019-01-27T07:23:06.249Z,20.30
2019-01-27T07:25:49.977Z,20.10
2019-01-27T07:28:23.012Z,20.40
2019-01-27T07:31:06.802Z,20.30
2019-01-27T07:33:38.636Z,20.30
2019-01-27T07:36:19.042Z,20.40
2019-01-27T07:38:50.914Z,20.20
2019-01-27T07:41:23.790Z,19.70
2019-01-27T07:44:01.685Z,19.70
2019-01-27T07:46:42.478Z,19.80
2019-01-27T07:49:23.554Z,20.00
2019-01-27T07:52:16.115Z,20.30
2019-01-27T07:54:50.854Z,20.30
2019-01-27T07:57:34.640Z,20.30
2019-01-27T08:00:13.677Z,20.20
2019-01-27T08:02:51.852Z,19.90
2019-01-27T08:05:23.684Z,20.00
2019-01-27T08:07:58.273Z,20.10
2019-01-27T08:10:30.119Z,20.10
2019-01-27T08:13:01.821Z,20.20
2019-01-27T08:15:36.449Z,20.20
2019-01-27T08:18:11.124Z,20.30
2019-01-27T08:20:58.718Z,20.30
2019-01-27T08:24:06.429Z,20.30
2019-01-27T08:26:55.652Z,20.30
2019-01-27T08:29:33.285Z,20.20
2019-01-27T08:32:23.283Z,20.20
2019-01-27T08:34:54.945Z,19.70
2019-01-27T08:37:26.805Z,19.50
2019-01-27T08:40:01.481Z,19.50
2019-01-27T08:42:36.152Z,19.40
2019-01-27T08:45:10.899Z,19.40
2019-01-27T08:47:41.376Z,19.30
2019-01-27T08:50:14.309Z,19.20
2019-01-27T08:52:44.611Z,19.20
2019-01-27T08:55:15.702Z,19.30
2019-01-27T08:57:46.100Z,19.30
2019-01-27T09:00:19.816Z,19.20
2019-01-27T09:02:54.647Z,19.30
2019-01-27T09:05:29.356Z,19.20
2019-01-27T09:08:03.570Z,18.90
2019-01-27T09:10:37.977Z,18.70
2019-01-27T09:13:15.502Z,18.60
2019-01-27T09:15:47.343Z,18.90
2019-01-27T09:18:28.086Z,18.90
2019-01-27T09:21:02.842Z,19.00
2019-01-27T09:23:40.317Z,19.10
2019-01-27T09:26:18.188Z,19.10
2019-01-27T09:28:49.876Z,19.10
2019-01-27T09:31:33.689Z,19.10
2019-01-27T09:34:17.517Z,19.00
2019-01-27T09:37:01.370Z,19.00
2019-01-27T09:39:45.153Z,19.00
2019-01-27T09:42:16.936Z,18.90
2019-01-27T09:44:57.514Z,18.80
2019-01-27T09:47:35.619Z,18.70
2019-01-27T09:50:10.281Z,18.70
2019-01-27T09:52:44.624Z,18.60
2019-01-27T09:55:19.379Z,18.60
2019-01-27T09:58:00.165Z,18.60
2019-01-27T10:00:38.302Z,18.50
2019-01-27T10:03:13.346Z,18.50
2019-01-27T10:05:45.156Z,18.60
2019-01-27T10:08:23.032Z,18.60
2019-01-27T10:11:00.807Z,18.50
2019-01-27T10:13:32.531Z,18.50
2019-01-27T10:16:16.521Z,18.50
2019-01-27T10:18:57.382Z,18.50
2019-01-27T10:21:44.301Z,18.50
2019-01-27T10:24:28.474Z,18.40
2019-01-27T10:30:14.060Z,18.30
2019-01-27T10:32:54.522Z,18.30
2019-01-27T10:35:26.368Z,18.30
2019-01-27T10:38:07.141Z,18.20
2019-01-27T10:40:39.868Z,18.20
2019-01-27T10:43:12.062Z,18.30
2019-01-27T10:45:46.381Z,18.30
2019-01-27T10:48:18.142Z,18.40
2019-01-27T10:51:05.153Z,18.40
2019-01-27T10:53:36.862Z,18.40
2019-01-27T10:56:09.112Z,18.40
2019-01-27T10:58:47.049Z,18.50
2019-01-27T11:01:21.781Z,18.50
2019-01-27T11:04:09.934Z,18.60
2019-01-27T11:06:51.010Z,18.70
2019-01-27T11:09:23.030Z,18.70
2019-01-27T11:11:54.875Z,18.60
2019-01-27T11:14:26.738Z,18.60
2019-01-27T11:17:04.935Z,18.60
2019-01-27T11:19:52.902Z,18.60
2019-01-27T11:22:24.768Z,18.40
2019-01-27T11:25:02.558Z,18.30
2019-01-27T11:27:52.093Z,18.20
2019-01-27T11:30:36.557Z,18.20
2019-01-27T11:33:08.813Z,18.30
2019-01-27T11:35:55.884Z,18.30
2019-01-27T11:38:27.641Z,18.20
2019-01-27T11:40:59.551Z,18.20
2019-01-27T11:43:47.694Z,18.20
2019-01-27T11:46:25.406Z,18.30
2019-01-27T11:48:59.843Z,18.30
2019-01-27T11:51:31.855Z,18.30
2019-01-27T11:54:02.248Z,18.20
2019-01-27T11:56:32.614Z,18.00
2019-01-27T11:59:03.073Z,18.20
2019-01-27T12:01:33.447Z,18.20
2019-01-27T12:04:03.812Z,18.20
2019-01-27T12:06:34.303Z,18.20
2019-01-27T12:09:06.072Z,18.30
2019-01-27T12:11:36.678Z,18.30
2019-01-27T12:14:07.099Z,18.20
2019-01-27T12:16:37.427Z,18.20
2019-01-27T12:19:08.059Z,18.10
2019-01-27T12:21:38.545Z,18.20
2019-01-27T12:24:08.920Z,18.10
2019-01-27T12:26:39.964Z,18.10
2019-01-27T12:29:10.295Z,18.00
2019-01-27T12:31:40.764Z,18.00
2019-01-27T12:34:11.176Z,17.90
2019-01-27T12:36:41.775Z,18.00
2019-01-27T12:39:12.178Z,17.80
2019-01-27T12:41:42.687Z,17.80
2019-01-27T12:44:13.138Z,17.70
2019-01-27T12:46:43.467Z,17.70
2019-01-27T12:49:13.900Z,17.60
2019-01-27T12:51:44.827Z,17.60
2019-01-27T12:54:15.448Z,17.60
2019-01-27T12:56:45.865Z,17.60
2019-01-27T12:59:16.338Z,17.60
2019-01-27T13:01:46.824Z,17.80
2019-01-27T13:04:17.193Z,17.90
2019-01-27T13:06:47.624Z,18.00
2019-01-27T13:09:18.050Z,18.10
2019-01-27T13:11:48.427Z,18.10
2019-01-27T13:14:18.967Z,18.30
2019-01-27T13:16:49.391Z,18.40
2019-01-27T13:19:19.778Z,18.50
2019-01-27T13:21:50.133Z,18.80
2019-01-27T13:24:20.669Z,19.40
2019-01-27T13:26:50.951Z,20.00
2019-01-27T13:29:21.394Z,20.60
2019-01-27T13:31:53.037Z,21.10
2019-01-27T13:34:23.451Z,21.60
2019-01-27T13:36:53.741Z,22.00
2019-01-27T13:39:24.197Z,22.10
2019-01-27T13:41:54.692Z,22.00
2019-01-27T13:44:30.902Z,22.00
2019-01-27T13:47:01.415Z,22.20
2019-01-27T13:49:31.946Z,22.50
2019-01-27T13:52:03.720Z,23.00
2019-01-27T13:54:34.235Z,23.40
2019-01-27T13:57:04.711Z,23.50
2019-01-27T13:59:35.049Z,23.70
2019-01-27T14:02:05.628Z,23.60
2019-01-27T14:04:35.956Z,23.60
2019-01-27T14:07:09.358Z,23.50
2019-01-27T14:09:39.816Z,23.40
2019-01-27T14:12:10.151Z,22.90
2019-01-27T14:14:41.985Z,22.60
2019-01-27T14:17:12.668Z,22.60
2019-01-27T14:19:43.053Z,22.40
2019-01-27T14:22:13.519Z,22.20
2019-01-27T14:24:44.032Z,22.20
2019-01-27T14:27:14.502Z,22.10
2019-01-27T14:29:44.904Z,22.00
2019-01-27T14:32:15.414Z,22.10
2019-01-27T14:34:45.758Z,22.50
2019-01-27T14:37:16.114Z,22.50
2019-01-27T14:39:46.550Z,22.80
2019-01-27T14:42:16.941Z,22.80
2019-01-27T14:44:47.322Z,22.90
2019-01-27T14:47:17.790Z,22.90
2019-01-27T14:49:48.093Z,23.00
2019-01-27T14:52:19.796Z,23.00
2019-01-27T14:54:50.830Z,23.20
2019-01-27T14:57:23.939Z,23.70
2019-01-27T14:59:54.386Z,24.10
2019-01-27T15:02:24.776Z,24.30
2019-01-27T15:04:55.153Z,24.50
2019-01-27T15:07:25.574Z,24.60
2019-01-27T15:09:56.101Z,24.80
2019-01-27T15:12:26.568Z,25.20
2019-01-27T15:14:58.248Z,25.50
2019-01-27T15:17:33.043Z,26.10
2019-01-27T15:20:03.492Z,26.40
2019-01-27T15:22:36.544Z,26.30
2019-01-27T15:25:09.812Z,26.60
2019-01-27T15:27:40.299Z,26.70
2019-01-27T15:30:17.975Z,27.10
2019-01-27T15:32:48.453Z,27.10
2019-01-27T15:35:20.551Z,27.10
2019-01-27T15:37:51.021Z,27.00
2019-01-27T15:40:24.592Z,26.70
2019-01-27T15:42:55.036Z,26.40
2019-01-27T15:45:33.049Z,26.80
2019-01-27T15:48:03.669Z,26.70
2019-01-27T15:50:37.842Z,26.90
2019-01-27T15:53:13.015Z,27.40
2019-01-27T15:55:43.430Z,27.30
2019-01-27T15:58:15.911Z,27.70
2019-01-27T16:00:46.413Z,28.00
2019-01-27T16:03:17.529Z,27.80
2019-01-27T16:05:47.829Z,27.50
2019-01-27T16:08:18.340Z,27.90
2019-01-27T16:10:51.198Z,26.80
2019-01-27T16:13:23.751Z,27.00
2019-01-27T16:15:54.153Z,26.40
2019-01-27T16:18:24.718Z,27.30
2019-01-27T16:20:55.317Z,27.90
2019-01-27T16:23:32.878Z,28.60
2019-01-27T16:26:04.038Z,29.30
2019-01-27T16:28:34.490Z,29.40
2019-01-27T16:31:06.252Z,29.80
2019-01-27T16:33:38.218Z,30.00
2019-01-27T16:36:08.700Z,30.40
2019-01-27T16:38:39.078Z,30.40
2019-01-27T16:41:09.712Z,29.30
2019-01-27T16:43:40.160Z,29.00
2019-01-27T16:46:10.524Z,28.80
2019-01-27T16:48:42.307Z,29.00
2019-01-27T16:51:15.497Z,29.40
2019-01-27T16:53:45.951Z,29.30
2019-01-27T16:56:16.313Z,29.60
2019-01-27T16:58:46.622Z,28.90
2019-01-27T17:01:18.817Z,28.30
2019-01-27T17:03:49.201Z,28.20
2019-01-27T17:06:19.760Z,29.10
2019-01-27T17:08:50.200Z,29.00
2019-01-27T17:11:20.541Z,28.60
2019-01-27T17:13:50.893Z,28.60
2019-01-27T17:16:21.636Z,28.40
2019-01-27T17:18:52.342Z,28.80
2019-01-27T17:21:27.180Z,28.70
2019-01-27T17:23:58.775Z,29.20
2019-01-27T17:26:29.154Z,29.00
2019-01-27T17:29:03.771Z,29.10
2019-01-27T17:31:34.233Z,29.80
2019-01-27T17:34:08.259Z,29.80
2019-01-27T17:36:38.718Z,30.10
2019-01-27T17:39:12.492Z,29.30
2019-01-27T17:41:43.525Z,29.00
2019-01-27T17:44:14.188Z,29.70
2019-01-27T17:46:44.654Z,30.20
2019-01-27T17:49:24.644Z,29.90
2019-01-27T17:51:55.010Z,29.80
2019-01-27T17:54:25.384Z,29.60
2019-01-27T17:56:59.349Z,29.80
2019-01-27T17:59:30.419Z,29.50
2019-01-27T18:02:24.124Z,29.90
2019-01-27T18:04:56.089Z,30.70
2019-01-27T18:07:27.752Z,29.60
2019-01-27T18:10:02.230Z,29.30
2019-01-27T18:12:36.603Z,30.00
2019-01-27T18:15:08.840Z,30.80
2019-01-27T18:17:39.177Z,30.40
2019-01-27T18:20:13.057Z,30.50
2019-01-27T18:22:44.858Z,30.80
2019-01-27T18:25:15.478Z,31.40
2019-01-27T18:27:46.459Z,30.80
2019-01-27T18:30:21.971Z,31.00
2019-01-27T18:32:53.572Z,31.60
2019-01-27T18:35:23.993Z,31.50
2019-01-27T18:37:54.498Z,31.80
2019-01-27T18:40:24.889Z,31.50
2019-01-27T18:42:56.735Z,30.40
2019-01-27T18:45:27.275Z,30.30
2019-01-27T18:47:57.788Z,29.30
2019-01-27T18:50:28.329Z,29.50
2019-01-27T18:53:01.472Z,30.10
2019-01-27T18:55:48.405Z,30.40
2019-01-27T18:58:20.197Z,30.20
2019-01-27T19:00:55.297Z,30.70
2019-01-27T19:03:27.234Z,31.00
2019-01-27T19:05:59.090Z,30.70
2019-01-27T19:08:57.967Z,30.90
2019-01-27T19:11:32.996Z,30.50
2019-01-27T19:14:15.656Z,30.40
2019-01-27T19:16:53.343Z,29.40
2019-01-27T19:19:25.334Z,29.80
2019-01-27T19:22:01.096Z,29.00
2019-01-27T19:24:36.012Z,29.50
2019-01-27T19:27:14.650Z,30.10
2019-01-27T19:29:52.244Z,30.30
2019-01-27T19:32:30.359Z,30.10
2019-01-27T19:35:09.779Z,29.10
2019-01-27T19:37:50.702Z,28.20
2019-01-27T19:40:22.875Z,28.70
2019-01-27T19:43:00.691Z,27.90
2019-01-27T19:45:41.208Z,28.30
2019-01-27T19:48:19.218Z,29.00
2019-01-27T19:50:50.901Z,29.50
2019-01-27T19:53:27.309Z,29.70
2019-01-27T19:55:59.043Z,29.70
2019-01-27T19:58:30.937Z,29.00
2019-01-27T20:01:02.731Z,29.00
2019-01-27T20:03:38.481Z,29.20
2019-01-27T20:06:16.266Z,30.00
2019-01-27T20:09:00.414Z,29.10
2019-01-27T20:11:47.174Z,29.20
2019-01-27T20:14:28.050Z,29.60
2019-01-27T20:17:11.676Z,30.30
2019-01-27T20:19:43.618Z,30.10
2019-01-27T20:22:17.072Z,29.90
2019-01-27T20:24:48.727Z,30.00
2019-01-27T20:27:26.163Z,29.50
2019-01-27T20:29:58.025Z,29.20
2019-01-27T20:32:29.983Z,29.10
2019-01-27T20:35:18.309Z,28.60
2019-01-27T20:37:52.954Z,28.80
2019-01-27T20:40:31.107Z,29.30
2019-01-27T20:43:14.958Z,28.90
2019-01-27T20:45:46.767Z,28.40
2019-01-27T20:48:27.503Z,28.00
2019-01-27T20:51:02.366Z,28.10
2019-01-27T20:53:34.146Z,28.60
2019-01-27T20:56:19.613Z,28.80
2019-01-27T20:58:57.477Z,29.10
2019-01-27T21:01:29.323Z,28.60
2019-01-27T21:04:02.107Z,27.80
2019-01-27T21:06:33.994Z,28.20
2019-01-27T21:09:10.102Z,28.60
2019-01-27T21:11:47.869Z,28.90
2019-01-27T21:14:31.699Z,28.80
2019-01-27T21:17:18.598Z,28.40
2019-01-27T21:19:49.178Z,27.80
2019-01-27T21:22:19.576Z,27.30
2019-01-27T21:24:50.094Z,26.60
2019-01-27T21:27:20.461Z,26.90
2019-01-27T21:29:50.836Z,27.10
2019-01-27T21:32:21.857Z,27.30
2019-01-27T21:34:52.404Z,26.90
2019-01-27T21:37:22.771Z,27.10
2019-01-27T21:39:53.224Z,27.40
2019-01-27T21:42:23.766Z,27.30
2019-01-27T21:44:54.112Z,27.00
2019-01-27T21:47:24.595Z,27.10
2019-01-27T21:49:54.972Z,26.90
2019-01-27T21:52:25.406Z,27.20
2019-01-27T21:54:55.901Z,26.70
2019-01-27T21:57:26.314Z,26.90
2019-01-27T21:59:56.669Z,27.10
2019-01-27T22:02:27.150Z,26.90
2019-01-27T22:04:57.544Z,26.60
2019-01-27T22:07:27.914Z,26.70
2019-01-27T22:09:58.432Z,26.60
2019-01-27T22:12:28.879Z,26.70
2019-01-27T22:15:01.742Z,26.30
2019-01-27T22:17:32.266Z,26.00
2019-01-27T22:20:02.773Z,26.00
2019-01-27T22:22:33.137Z,26.20
2019-01-27T22:25:03.672Z,26.50
2019-01-27T22:27:33.983Z,26.10
2019-01-27T22:30:06.029Z,26.40
2019-01-27T22:32:36.425Z,26.50
2019-01-27T22:35:08.063Z,26.30
2019-01-27T22:37:38.501Z,26.10
2019-01-27T22:40:11.560Z,26.00
2019-01-27T22:42:42.049Z,26.10
2019-01-27T22:45:14.679Z,26.30
2019-01-27T22:47:45.327Z,26.40
2019-01-27T22:50:18.162Z,26.30
2019-01-27T22:52:50.332Z,26.00
2019-01-27T22:55:20.717Z,25.70
2019-01-27T22:57:51.345Z,25.30
2019-01-27T23:00:28.557Z,25.20
2019-01-27T23:02:59.092Z,25.40
2019-01-27T23:05:29.444Z,24.80
2019-01-27T23:08:01.160Z,24.60
2019-01-27T23:10:31.572Z,24.70
2019-01-27T23:13:01.925Z,24.50
2019-01-27T23:15:32.625Z,24.80
2019-01-27T23:18:03.044Z,24.50
2019-01-27T23:20:33.388Z,24.30
2019-01-27T23:23:03.868Z,24.20
2019-01-27T23:25:34.216Z,24.00
2019-01-27T23:28:04.556Z,24.00
2019-01-27T23:30:35.222Z,23.90
2019-01-27T23:33:05.918Z,23.40
2019-01-27T23:35:39.277Z,23.70
2019-01-27T23:38:09.707Z,23.70
2019-01-27T23:40:40.047Z,23.50
2019-01-27T23:43:10.629Z,23.50
2019-01-27T23:45:40.980Z,23.60
2019-01-27T23:48:11.348Z,23.60
2019-01-27T23:50:41.888Z,23.50
2019-01-27T23:53:12.262Z,23.20
2019-01-27T23:55:42.598Z,23.30
2019-01-27T23:58:12.987Z,23.40
